createdAt,value
2023-03-29T00:03:49.374Z,7.60
2023-03-29T00:09:50.903Z,6.10
2023-03-29T00:15:55.886Z,6.50
2023-03-29T00:21:57.604Z,7.60
2023-03-29T00:27:59.126Z,8.00
2023-03-29T00:34:00.737Z,9.10
2023-03-29T00:40:10.061Z,8.70
2023-03-29T00:46:11.570Z,9.10
2023-03-29T00:52:15.400Z,8.20
2023-03-29T00:58:21.122Z,8.30
2023-03-29T01:04:53.307Z,8.30
2023-03-29T01:11:19.861Z,8.80
2023-03-29T01:17:24.668Z,8.40
2023-03-29T01:23:53.967Z,9.60
2023-03-29T01:30:00.543Z,9.30
2023-03-29T01:36:12.403Z,8.60
2023-03-29T01:42:26.290Z,8.80
2023-03-29T01:48:36.262Z,9.20
2023-03-29T01:54:45.572Z,9.20
2023-03-29T02:00:48.534Z,9.00
2023-03-29T02:06:53.671Z,8.20
2023-03-29T02:13:00.746Z,8.70
2023-03-29T02:19:08.492Z,8.20
2023-03-29T02:25:10.297Z,7.80
2023-03-29T02:31:38.469Z,5.90
2023-03-29T02:37:43.703Z,8.40
2023-03-29T02:43:49.756Z,8.10
2023-03-29T02:49:51.300Z,8.60
2023-03-29T02:55:53.215Z,8.60
2023-03-29T03:01:55.025Z,10.40
2023-03-29T03:07:57.719Z,10.00
2023-03-29T03:13:59.438Z,9.70
2023-03-29T03:20:00.937Z,9.70
2023-03-29T03:26:02.739Z,10.50
2023-03-29T03:32:05.334Z,10.70
2023-03-29T03:38:25.664Z,10.20
2023-03-29T03:51:20.841Z,9.60
2023-03-29T03:57:31.213Z,8.90
2023-03-29T04:03:33.358Z,9.00
2023-03-29T04:09:38.255Z,9.10
2023-03-29T04:16:01.697Z,10.30
2023-03-29T04:22:12.676Z,9.60
2023-03-29T04:28:17.052Z,10.50
2023-03-29T04:34:32.496Z,11.00
2023-03-29T04:40:34.565Z,10.90
2023-03-29T04:47:12.201Z,10.10
2023-03-29T04:53:27.630Z,9.40
2023-03-29T04:59:29.323Z,9.20
2023-03-29T05:05:33.464Z,9.60
2023-03-29T05:11:36.524Z,8.70
2023-03-29T05:17:38.739Z,8.30
2023-03-29T05:23:44.228Z,8.90
2023-03-29T05:29:51.655Z,7.90
2023-03-29T05:36:07.817Z,7.30
2023-03-29T05:42:14.832Z,6.70
2023-03-29T05:48:24.162Z,7.70
2023-03-29T05:54:26.483Z,6.80
2023-03-29T06:00:29.232Z,6.50
2023-03-29T06:06:38.583Z,6.60
2023-03-29T06:12:41.331Z,6.20
2023-03-29T06:18:44.198Z,7.10
2023-03-29T06:24:46.504Z,6.10
2023-03-29T06:31:01.852Z,6.90
2023-03-29T06:37:07.779Z,6.30
2023-03-29T06:43:10.364Z,5.80
2023-03-29T06:49:29.249Z,5.70
2023-03-29T06:55:54.103Z,6.20
2023-03-29T07:02:11.689Z,5.60
2023-03-29T07:08:22.472Z,4.90
2023-03-29T07:14:33.648Z,5.30
2023-03-29T07:20:37.741Z,4.80
2023-03-29T07:26:52.385Z,5.00
2023-03-29T07:33:03.658Z,4.20
2023-03-29T07:39:15.022Z,4.00
2023-03-29T07:45:26.084Z,4.50
2023-03-29T07:51:42.958Z,3.60
2023-03-29T07:57:46.594Z,3.70
2023-03-29T08:03:48.872Z,4.60
2023-03-29T08:09:51.284Z,4.80
2023-03-29T08:15:55.378Z,4.80
2023-03-29T08:22:02.275Z,4.10
2023-03-29T08:28:12.662Z,3.90
2023-03-29T08:34:20.853Z,2.30
2023-03-29T08:40:38.095Z,2.60
2023-03-29T08:47:36.210Z,2.90
2023-03-29T08:53:41.738Z,2.60
2023-03-29T08:59:51.035Z,3.00
2023-03-29T09:05:57.541Z,2.60
2023-03-29T09:12:16.038Z,2.40
2023-03-29T09:18:48.632Z,2.00
2023-03-29T09:25:20.768Z,1.60
2023-03-29T09:31:27.868Z,1.60
2023-03-29T09:37:33.903Z,1.80
2023-03-29T09:43:41.109Z,1.90
2023-03-29T09:49:48.299Z,1.80
2023-03-29T09:55:51.312Z,1.40
2023-03-29T10:02:13.025Z,1.70
2023-03-29T10:08:41.811Z,1.80
2023-03-29T10:14:53.922Z,1.90
2023-03-29T10:20:59.297Z,1.80
2023-03-29T10:27:03.140Z,1.80
2023-03-29T10:33:06.272Z,1.80
2023-03-29T10:39:10.079Z,1.70
2023-03-29T10:45:22.212Z,1.90
2023-03-29T10:51:27.057Z,1.40
2023-03-29T10:57:37.996Z,1.60
2023-03-29T11:03:58.150Z,1.40
2023-03-29T11:10:14.045Z,1.70
2023-03-29T11:16:15.941Z,1.80
2023-03-29T11:22:20.664Z,1.60
2023-03-29T11:28:42.363Z,1.70
2023-03-29T11:35:10.193Z,1.70
2023-03-29T11:41:17.053Z,1.80
2023-03-29T11:47:20.714Z,1.60
2023-03-29T11:53:27.780Z,1.60
2023-03-29T11:59:36.710Z,1.50
2023-03-29T12:05:45.276Z,1.60
2023-03-29T12:12:02.428Z,1.30
2023-03-29T12:18:07.097Z,1.50
2023-03-29T12:24:20.436Z,1.70
2023-03-29T12:30:40.966Z,1.80
2023-03-29T12:37:21.224Z,1.90
2023-03-29T12:43:42.747Z,1.60
2023-03-29T12:50:04.031Z,1.90
2023-03-29T12:56:07.841Z,1.90
2023-03-29T13:02:13.181Z,1.70
2023-03-29T13:08:25.705Z,2.00
2023-03-29T13:14:29.536Z,1.40
2023-03-29T13:21:20.466Z,1.70
2023-03-29T13:27:39.085Z,1.20
2023-03-29T13:33:55.459Z,1.70
2023-03-29T13:39:57.216Z,1.30
2023-03-29T13:45:59.304Z,1.80
2023-03-29T13:52:18.817Z,1.60
2023-03-29T13:58:39.090Z,1.50
2023-03-29T14:04:46.316Z,2.00
2023-03-29T14:10:48.221Z,1.80
2023-03-29T14:16:50.191Z,1.70
2023-03-29T14:22:52.460Z,2.00
2023-03-29T14:29:00.335Z,1.50
2023-03-29T14:35:02.112Z,1.70
2023-03-29T14:41:06.852Z,1.60
2023-03-29T14:47:15.653Z,2.20
2023-03-29T14:53:22.373Z,2.30
2023-03-29T14:59:38.291Z,2.00
2023-03-29T15:05:56.842Z,2.40
2023-03-29T15:12:04.682Z,2.10
2023-03-29T15:18:09.362Z,2.50
2023-03-29T15:24:30.785Z,2.50
2023-03-29T15:30:37.957Z,1.90
2023-03-29T15:36:49.600Z,2.20
2023-03-29T15:43:01.293Z,2.60
2023-03-29T15:49:04.279Z,2.00
2023-03-29T15:55:12.104Z,2.10
2023-03-29T16:01:38.086Z,2.20
2023-03-29T16:07:39.800Z,1.90
2023-03-29T16:13:44.726Z,2.10
2023-03-29T16:19:49.448Z,2.10
2023-03-29T16:25:50.900Z,2.10
2023-03-29T16:31:53.214Z,2.30
2023-03-29T16:37:55.904Z,2.50
2023-03-29T16:43:58.420Z,2.10
2023-03-29T16:50:00.021Z,2.40
2023-03-29T16:56:03.061Z,2.90
2023-03-29T17:02:05.172Z,2.30
2023-03-29T17:08:09.203Z,2.20
2023-03-29T17:14:12.049Z,2.10
2023-03-29T17:20:13.446Z,2.00
2023-03-29T17:26:17.533Z,2.20
2023-03-29T17:32:19.047Z,2.30
2023-03-29T17:38:21.108Z,2.70
2023-03-29T17:44:22.823Z,2.80
2023-03-29T17:50:25.697Z,2.40
2023-03-29T17:56:27.720Z,2.30
2023-03-29T18:02:29.458Z,2.60
2023-03-29T18:08:32.086Z,2.90
2023-03-29T18:14:34.882Z,3.40
2023-03-29T18:20:36.522Z,4.90
2023-03-29T18:26:38.420Z,6.00
2023-03-29T18:32:40.117Z,6.40
2023-03-29T18:38:43.258Z,5.90
2023-03-29T18:44:48.505Z,6.20
2023-03-29T18:51:16.549Z,6.70
2023-03-29T18:57:25.868Z,7.70
2023-03-29T19:03:28.017Z,6.70
2023-03-29T19:09:30.999Z,7.60
2023-03-29T19:15:46.803Z,7.60
2023-03-29T19:21:48.925Z,7.80
2023-03-29T19:27:50.995Z,7.60
2023-03-29T19:33:52.910Z,8.20
2023-03-29T19:39:58.441Z,7.80
2023-03-29T19:46:06.431Z,8.20
2023-03-29T19:52:08.047Z,7.80
2023-03-29T19:58:09.601Z,7.00
2023-03-29T20:04:11.387Z,7.40
2023-03-29T20:10:16.558Z,7.20
2023-03-29T20:16:23.698Z,6.90
2023-03-29T20:22:30.059Z,6.60
2023-03-29T20:28:37.215Z,7.50
2023-03-29T20:34:41.246Z,7.70
2023-03-29T20:40:44.403Z,7.60
2023-03-29T20:47:18.142Z,6.80
2023-03-29T21:00:37.807Z,6.60
2023-03-29T21:07:04.865Z,7.20
2023-03-29T21:13:06.973Z,7.40
2023-03-29T21:19:09.535Z,6.50
2023-03-29T21:25:15.330Z,7.20
2023-03-29T21:31:17.464Z,7.20
2023-03-29T21:37:21.473Z,7.30
2023-03-29T21:43:25.426Z,7.10
2023-03-29T21:49:29.145Z,6.80
2023-03-29T21:55:33.398Z,6.40
2023-03-29T22:01:35.124Z,6.20
2023-03-29T22:07:40.190Z,7.30
2023-03-29T22:13:45.557Z,6.30
2023-03-29T22:19:49.723Z,5.70
2023-03-29T22:25:51.245Z,6.00
2023-03-29T22:31:53.136Z,6.00
2023-03-29T22:37:55.109Z,5.80
2023-03-29T22:43:58.064Z,6.50
2023-03-29T22:49:59.881Z,6.00
2023-03-29T22:56:06.873Z,5.50
2023-03-29T23:02:08.504Z,5.90
2023-03-29T23:08:10.346Z,5.80
2023-03-29T23:14:11.825Z,5.80
2023-03-29T23:20:13.391Z,6.10
2023-03-29T23:26:15.256Z,6.30
2023-03-29T23:32:16.718Z,6.10
2023-03-29T23:38:18.483Z,6.30
2023-03-29T23:44:20.144Z,6.60
2023-03-29T23:50:21.963Z,5.80
2023-03-29T23:56:23.566Z,5.40
